createdAt,value
2022-08-31T00:00:44.092Z,20.40
2022-08-31T00:02:04.639Z,20.35
2022-08-31T00:03:25.354Z,20.40
2022-08-31T00:04:27.917Z,20.35
2022-08-31T00:05:29.689Z,20.33
2022-08-31T00:06:35.281Z,20.27
2022-08-31T00:07:37.396Z,20.26
2022-08-31T00:08:41.978Z,20.19
2022-08-31T00:09:43.602Z,20.19
2022-08-31T00:10:46.659Z,20.23
2022-08-31T00:11:48.960Z,20.24
2022-08-31T00:12:50.865Z,20.27
2022-08-31T00:14:02.212Z,20.29
2022-08-31T00:15:05.788Z,20.29
2022-08-31T00:16:09.451Z,20.34
2022-08-31T00:17:11.241Z,20.38
2022-08-31T00:18:13.013Z,20.43
2022-08-31T00:19:15.220Z,20.48
2022-08-31T00:20:33.227Z,20.46
2022-08-31T00:21:35.816Z,20.47
2022-08-31T00:22:37.524Z,20.50
2022-08-31T00:23:39.108Z,20.54
2022-08-31T00:24:40.791Z,20.56
2022-08-31T00:25:44.941Z,20.58
2022-08-31T00:26:46.667Z,20.61
2022-08-31T00:27:48.292Z,20.57
2022-08-31T00:28:50.701Z,20.59
2022-08-31T00:29:52.372Z,20.60
2022-08-31T00:30:54.049Z,20.63
2022-08-31T00:31:55.640Z,20.69
2022-08-31T00:32:58.579Z,20.74
2022-08-31T00:34:00.405Z,20.77
2022-08-31T00:35:02.065Z,20.80
2022-08-31T00:36:06.132Z,20.81
2022-08-31T00:37:07.712Z,20.81
2022-08-31T00:38:10.847Z,20.80
2022-08-31T00:39:12.429Z,20.80
2022-08-31T00:40:14.278Z,20.80
2022-08-31T00:41:17.906Z,20.80
2022-08-31T00:42:19.543Z,20.82
2022-08-31T00:43:34.443Z,20.83
2022-08-31T00:44:36.040Z,20.79
2022-08-31T00:45:37.698Z,20.77
2022-08-31T00:46:42.399Z,20.77
2022-08-31T00:47:44.010Z,20.80
2022-08-31T00:49:15.728Z,20.82
2022-08-31T00:50:19.031Z,20.80
2022-08-31T00:51:20.680Z,20.67
2022-08-31T00:52:27.592Z,20.54
2022-08-31T00:53:29.456Z,20.43
2022-08-31T00:54:36.815Z,20.21
2022-08-31T00:55:38.489Z,20.00
2022-08-31T00:56:41.733Z,19.83
2022-08-31T00:57:48.269Z,19.89
2022-08-31T00:58:54.673Z,19.98
2022-08-31T00:59:56.722Z,19.97
2022-08-31T01:00:59.885Z,19.99
2022-08-31T01:02:01.843Z,19.97
2022-08-31T01:03:06.756Z,19.83
2022-08-31T01:04:08.471Z,19.70
2022-08-31T01:05:11.170Z,19.61
2022-08-31T01:06:13.923Z,19.53
2022-08-31T01:07:15.796Z,19.47
2022-08-31T01:08:17.834Z,19.52
2022-08-31T01:09:26.270Z,19.43
2022-08-31T01:10:31.956Z,19.33
2022-08-31T01:11:35.565Z,19.21
2022-08-31T01:12:37.785Z,19.02
2022-08-31T01:13:41.890Z,18.98
2022-08-31T01:14:43.660Z,18.98
2022-08-31T01:15:51.299Z,18.91
2022-08-31T01:16:56.457Z,18.85
2022-08-31T01:18:04.715Z,18.82
2022-08-31T01:19:17.454Z,18.85
2022-08-31T01:20:30.276Z,18.89
2022-08-31T01:22:00.721Z,19.02
2022-08-31T01:23:02.247Z,19.16
2022-08-31T01:24:06.268Z,19.28
2022-08-31T01:25:08.144Z,19.36
2022-08-31T01:26:13.455Z,19.48
2022-08-31T01:27:19.897Z,19.58
2022-08-31T01:28:21.489Z,19.69
2022-08-31T01:29:23.163Z,19.79
2022-08-31T01:30:26.619Z,19.86
2022-08-31T01:31:33.669Z,19.94
2022-08-31T01:32:37.413Z,20.01
2022-08-31T01:33:39.543Z,20.07
2022-08-31T01:34:41.777Z,20.05
2022-08-31T01:35:45.224Z,19.99
2022-08-31T01:36:48.245Z,19.95
2022-08-31T01:37:50.119Z,19.93
2022-08-31T01:38:53.500Z,19.87
2022-08-31T01:39:55.425Z,19.78
2022-08-31T01:41:01.914Z,19.73
2022-08-31T01:42:03.965Z,19.70
2022-08-31T01:43:05.562Z,19.70
2022-08-31T01:44:08.051Z,19.71
2022-08-31T01:45:10.738Z,19.71
2022-08-31T01:46:13.384Z,19.68
2022-08-31T01:47:14.969Z,19.65
2022-08-31T01:48:17.527Z,19.63
2022-08-31T01:49:20.697Z,19.58
2022-08-31T01:50:22.381Z,19.57
2022-08-31T01:51:24.064Z,19.58
2022-08-31T01:52:27.734Z,19.62
2022-08-31T01:53:29.650Z,19.60
2022-08-31T01:54:31.677Z,19.52
2022-08-31T01:55:33.280Z,19.49
2022-08-31T01:56:38.590Z,19.38
2022-08-31T01:57:40.228Z,19.24
2022-08-31T01:58:42.069Z,19.13
2022-08-31T01:59:46.664Z,19.03
2022-08-31T02:00:48.377Z,19.02
2022-08-31T02:01:52.914Z,19.03
2022-08-31T02:02:57.486Z,19.02
2022-08-31T02:03:59.232Z,19.01
2022-08-31T02:05:01.076Z,19.03
2022-08-31T02:06:10.467Z,19.14
2022-08-31T02:07:12.074Z,19.22
2022-08-31T02:08:13.724Z,19.33
2022-08-31T02:09:16.040Z,19.39
2022-08-31T02:10:17.698Z,19.43
2022-08-31T02:11:19.374Z,19.46
2022-08-31T02:12:21.030Z,19.49
2022-08-31T02:13:22.676Z,19.53
2022-08-31T02:14:25.029Z,19.52
2022-08-31T02:15:26.631Z,19.58
2022-08-31T02:16:28.366Z,19.61
2022-08-31T02:17:30.428Z,19.69
2022-08-31T02:18:34.210Z,19.74
2022-08-31T02:19:35.887Z,19.75
2022-08-31T02:20:37.531Z,19.78
2022-08-31T02:21:39.385Z,19.82
2022-08-31T02:22:41.913Z,19.81
2022-08-31T02:23:43.601Z,19.78
2022-08-31T02:24:45.241Z,19.77
2022-08-31T02:25:46.909Z,19.82
2022-08-31T02:26:53.066Z,19.87
2022-08-31T02:27:55.418Z,19.92
2022-08-31T02:28:57.081Z,19.91
2022-08-31T02:29:58.693Z,19.85
2022-08-31T02:31:00.307Z,19.84
2022-08-31T02:32:02.026Z,19.82
2022-08-31T02:33:04.054Z,19.81
2022-08-31T02:34:05.711Z,19.70
2022-08-31T02:35:08.483Z,19.59
2022-08-31T02:36:10.108Z,19.51
2022-08-31T02:37:13.250Z,19.46
2022-08-31T02:38:14.881Z,19.42
2022-08-31T02:39:16.727Z,19.34
2022-08-31T02:40:18.524Z,19.30
2022-08-31T02:41:20.327Z,19.27
2022-08-31T02:42:22.263Z,19.23
2022-08-31T02:43:24.691Z,19.17
2022-08-31T02:44:26.880Z,19.18
2022-08-31T02:45:28.523Z,19.17
2022-08-31T02:46:30.179Z,19.20
2022-08-31T02:47:31.917Z,19.24
2022-08-31T02:48:35.351Z,19.34
2022-08-31T02:49:36.979Z,19.39
2022-08-31T02:50:43.666Z,19.51
2022-08-31T02:51:45.253Z,19.52
2022-08-31T02:52:47.724Z,19.49
2022-08-31T02:53:50.795Z,19.46
2022-08-31T02:54:52.386Z,19.34
2022-08-31T02:55:53.963Z,19.31
2022-08-31T02:56:55.608Z,19.29
2022-08-31T02:57:57.301Z,19.31
2022-08-31T02:58:59.198Z,19.29
2022-08-31T03:00:00.900Z,19.33
2022-08-31T03:01:04.584Z,19.35
2022-08-31T03:02:06.268Z,19.42
2022-08-31T03:03:08.005Z,19.52
2022-08-31T03:04:09.678Z,19.58
2022-08-31T03:05:12.848Z,19.67
2022-08-31T03:06:15.085Z,19.78
2022-08-31T03:07:16.780Z,19.85
2022-08-31T03:08:19.459Z,19.90
2022-08-31T03:09:21.376Z,19.95
2022-08-31T03:10:25.333Z,19.92
2022-08-31T03:11:27.340Z,19.89
2022-08-31T03:12:29.080Z,19.85
2022-08-31T03:13:30.764Z,19.84
2022-08-31T03:14:32.362Z,19.83
2022-08-31T03:15:34.019Z,19.84
2022-08-31T03:16:35.631Z,19.89
2022-08-31T03:17:37.246Z,19.93
2022-08-31T03:18:38.851Z,19.96
2022-08-31T03:19:40.441Z,20.00
2022-08-31T03:20:42.034Z,19.98
2022-08-31T03:21:45.557Z,19.91
2022-08-31T03:22:49.257Z,19.85
2022-08-31T03:23:50.830Z,19.80
2022-08-31T03:24:52.411Z,19.81
2022-08-31T03:25:54.007Z,19.85
2022-08-31T03:26:56.020Z,19.91
2022-08-31T03:27:57.620Z,19.89
2022-08-31T03:29:00.115Z,19.86
2022-08-31T03:30:01.756Z,19.81
2022-08-31T03:31:06.916Z,19.81
2022-08-31T03:32:08.578Z,19.73
2022-08-31T03:33:10.242Z,19.63
2022-08-31T03:34:11.844Z,19.53
2022-08-31T03:35:18.284Z,19.49
2022-08-31T03:36:19.887Z,19.39
2022-08-31T03:37:21.975Z,19.34
2022-08-31T03:38:23.559Z,19.42
2022-08-31T03:39:25.197Z,19.42
2022-08-31T03:40:27.001Z,19.37
2022-08-31T03:41:28.624Z,19.35
2022-08-31T03:42:32.083Z,19.35
2022-08-31T03:43:33.956Z,19.34
2022-08-31T03:44:36.734Z,19.28
2022-08-31T03:45:40.140Z,19.29
2022-08-31T03:46:45.438Z,19.26
2022-08-31T03:47:47.126Z,19.28
2022-08-31T03:48:49.933Z,19.30
2022-08-31T03:49:51.508Z,19.35
2022-08-31T03:50:53.144Z,19.38
2022-08-31T03:51:54.730Z,19.37
2022-08-31T03:52:56.309Z,19.32
2022-08-31T03:53:58.004Z,19.27
2022-08-31T03:55:00.100Z,19.23
2022-08-31T03:56:03.800Z,19.27
2022-08-31T03:57:06.535Z,19.31
2022-08-31T03:58:08.790Z,19.28
2022-08-31T03:59:10.466Z,19.26
2022-08-31T04:00:12.645Z,19.21
2022-08-31T04:01:14.531Z,19.17
2022-08-31T04:02:16.302Z,19.10
2022-08-31T04:03:18.074Z,19.07
2022-08-31T04:04:19.812Z,19.06
2022-08-31T04:05:21.439Z,19.00
2022-08-31T04:06:23.028Z,19.00
2022-08-31T04:07:24.660Z,18.97
2022-08-31T04:08:26.442Z,18.94
2022-08-31T04:09:28.071Z,18.93
2022-08-31T04:10:29.677Z,18.92
2022-08-31T04:11:45.077Z,18.92
2022-08-31T04:12:47.316Z,18.94
2022-08-31T04:13:49.267Z,18.96
2022-08-31T04:14:50.895Z,18.94
2022-08-31T04:15:52.590Z,18.90
2022-08-31T04:16:54.219Z,18.90
2022-08-31T04:17:57.210Z,18.91
2022-08-31T04:18:59.292Z,18.92
2022-08-31T04:20:00.945Z,18.94
2022-08-31T04:21:03.485Z,18.97
2022-08-31T04:22:05.084Z,18.98
2022-08-31T04:23:06.883Z,18.99
2022-08-31T04:24:08.464Z,19.04
2022-08-31T04:25:10.458Z,19.02
2022-08-31T04:26:20.583Z,19.03
2022-08-31T04:27:22.205Z,19.05
2022-08-31T04:28:25.047Z,19.05
2022-08-31T04:29:26.995Z,19.03
2022-08-31T04:30:28.655Z,19.01
2022-08-31T04:31:31.372Z,19.04
2022-08-31T04:32:33.731Z,19.08
2022-08-31T04:33:39.546Z,19.09
2022-08-31T04:34:41.115Z,19.07
2022-08-31T04:35:43.341Z,19.00
2022-08-31T04:36:45.918Z,18.94
2022-08-31T04:37:48.132Z,18.95
2022-08-31T04:38:53.062Z,18.98
2022-08-31T04:39:57.013Z,18.98
2022-08-31T04:41:12.368Z,18.96
2022-08-31T04:42:13.939Z,18.92
2022-08-31T04:43:15.580Z,18.90
2022-08-31T04:44:19.913Z,18.98
2022-08-31T04:45:22.155Z,19.03
2022-08-31T04:46:23.956Z,19.09
2022-08-31T04:47:25.759Z,19.12
2022-08-31T04:48:27.387Z,19.14
2022-08-31T04:49:28.943Z,19.15
2022-08-31T04:50:31.207Z,19.22
2022-08-31T04:51:35.569Z,19.27
2022-08-31T04:52:37.727Z,19.29
2022-08-31T04:53:40.580Z,19.32
2022-08-31T04:54:42.289Z,19.31
2022-08-31T04:55:44.115Z,19.39
2022-08-31T04:56:46.348Z,19.50
2022-08-31T04:57:47.967Z,19.55
2022-08-31T04:59:01.455Z,19.59
2022-08-31T05:00:05.650Z,19.60
2022-08-31T05:01:11.742Z,19.64
2022-08-31T05:02:13.465Z,19.67
2022-08-31T05:03:15.196Z,19.70
2022-08-31T05:04:16.821Z,19.74
2022-08-31T05:05:18.527Z,19.76
2022-08-31T05:06:23.362Z,19.71
2022-08-31T05:07:25.738Z,19.67
2022-08-31T05:08:27.910Z,19.71
2022-08-31T05:09:29.605Z,19.80
2022-08-31T05:10:31.845Z,19.81
2022-08-31T05:11:34.553Z,19.76
2022-08-31T05:12:36.158Z,19.70
2022-08-31T05:13:37.949Z,19.71
2022-08-31T05:14:39.609Z,19.77
2022-08-31T05:15:43.673Z,19.82
2022-08-31T05:16:45.978Z,19.88
2022-08-31T05:17:47.568Z,19.99
2022-08-31T05:18:51.270Z,20.05
2022-08-31T05:19:53.252Z,20.12
2022-08-31T05:20:54.851Z,20.20
2022-08-31T05:21:56.428Z,20.19
2022-08-31T05:22:58.484Z,20.20
2022-08-31T05:24:06.249Z,20.20
2022-08-31T05:25:09.344Z,20.27
2022-08-31T05:26:18.224Z,20.28
2022-08-31T05:27:19.919Z,20.31
2022-08-31T05:28:23.669Z,20.35
2022-08-31T05:29:26.092Z,20.42
2022-08-31T05:30:27.979Z,20.52
2022-08-31T05:31:30.962Z,20.56
2022-08-31T05:32:32.673Z,20.66
2022-08-31T05:33:38.117Z,20.69
2022-08-31T05:34:41.550Z,20.72
2022-08-31T05:35:44.756Z,20.73
2022-08-31T05:36:50.698Z,20.75
2022-08-31T05:37:54.748Z,20.81
2022-08-31T05:39:00.801Z,20.88
2022-08-31T05:40:03.050Z,20.98
2022-08-31T05:41:06.234Z,21.10
2022-08-31T05:42:07.962Z,21.17
2022-08-31T05:43:09.685Z,21.21
2022-08-31T05:44:12.346Z,21.20
2022-08-31T05:45:13.990Z,21.17
2022-08-31T05:46:17.043Z,21.15
2022-08-31T05:47:18.680Z,21.16
2022-08-31T05:48:20.655Z,20.98
2022-08-31T05:49:28.152Z,20.81
2022-08-31T05:50:29.885Z,20.74
2022-08-31T05:51:34.937Z,20.78
2022-08-31T05:52:39.571Z,20.89
2022-08-31T05:53:41.919Z,20.99
2022-08-31T05:54:43.710Z,21.09
2022-08-31T05:55:45.333Z,21.21
2022-08-31T05:56:46.890Z,21.32
2022-08-31T05:57:49.148Z,21.39
2022-08-31T05:58:51.200Z,21.37
2022-08-31T05:59:52.830Z,21.35
2022-08-31T06:00:54.496Z,21.39
2022-08-31T06:01:57.121Z,21.46
2022-08-31T06:02:59.052Z,21.56
2022-08-31T06:04:01.653Z,21.66
2022-08-31T06:05:03.422Z,21.65
2022-08-31T06:06:05.572Z,21.52
2022-08-31T06:07:07.472Z,21.47
2022-08-31T06:08:13.091Z,21.53
2022-08-31T06:09:16.815Z,21.49
2022-08-31T06:10:19.059Z,21.20
2022-08-31T06:11:24.214Z,21.07
2022-08-31T06:12:26.364Z,21.19
2022-08-31T06:13:27.929Z,21.30
2022-08-31T06:14:29.563Z,21.31
2022-08-31T06:15:31.174Z,21.44
2022-08-31T06:16:33.536Z,21.52
2022-08-31T06:17:36.228Z,21.64
2022-08-31T06:18:50.727Z,21.61
2022-08-31T06:19:52.458Z,21.41
2022-08-31T06:21:09.114Z,21.18
2022-08-31T06:22:10.824Z,21.12
2022-08-31T06:23:12.426Z,20.96
2022-08-31T06:24:14.839Z,20.98
2022-08-31T06:25:19.495Z,20.89
2022-08-31T06:26:22.906Z,20.86
2022-08-31T06:27:24.971Z,20.98
2022-08-31T06:28:26.764Z,20.96
2022-08-31T06:29:31.558Z,20.82
2022-08-31T06:30:52.959Z,20.60
2022-08-31T06:31:57.024Z,20.58
2022-08-31T06:32:59.057Z,20.57
2022-08-31T06:34:02.403Z,20.55
2022-08-31T06:35:04.230Z,20.64
2022-08-31T06:36:14.296Z,20.79
2022-08-31T06:37:18.507Z,20.72
2022-08-31T06:38:20.941Z,20.64
2022-08-31T06:39:23.496Z,20.69
2022-08-31T06:40:26.769Z,20.79
2022-08-31T06:41:39.993Z,20.85
2022-08-31T06:42:41.595Z,20.97
2022-08-31T06:43:44.533Z,21.03
2022-08-31T06:44:46.145Z,21.07
2022-08-31T06:45:47.776Z,21.08
2022-08-31T06:46:50.628Z,21.09
2022-08-31T06:47:52.407Z,21.11
2022-08-31T06:48:55.917Z,21.24
2022-08-31T06:49:57.619Z,21.51
2022-08-31T06:50:59.578Z,21.77
2022-08-31T06:52:01.213Z,21.95
2022-08-31T06:53:02.817Z,22.16
2022-08-31T06:54:21.754Z,22.42
2022-08-31T06:55:28.930Z,22.70
2022-08-31T06:56:30.749Z,22.86
2022-08-31T06:57:32.355Z,22.95
2022-08-31T06:58:37.560Z,23.06
2022-08-31T06:59:39.127Z,23.17
2022-08-31T07:00:41.251Z,23.32
2022-08-31T07:01:43.007Z,23.31
2022-08-31T07:02:44.909Z,23.32
2022-08-31T07:03:57.060Z,23.28
2022-08-31T07:04:58.616Z,23.45
2022-08-31T07:06:16.800Z,23.45
2022-08-31T07:07:18.388Z,23.71
2022-08-31T07:08:21.393Z,23.86
2022-08-31T07:09:23.210Z,23.64
2022-08-31T07:10:24.803Z,23.57
2022-08-31T07:11:41.019Z,23.52
2022-08-31T07:12:45.764Z,23.59
2022-08-31T07:13:48.345Z,23.75
2022-08-31T07:14:52.929Z,23.86
2022-08-31T07:16:09.191Z,24.03
2022-08-31T07:17:10.824Z,24.03
2022-08-31T07:18:12.417Z,24.14
2022-08-31T07:19:15.338Z,24.21
2022-08-31T07:20:17.006Z,24.34
2022-08-31T07:21:29.349Z,24.47
2022-08-31T07:22:30.955Z,24.66
2022-08-31T07:23:32.794Z,24.73
2022-08-31T07:24:35.320Z,24.73
2022-08-31T07:25:39.253Z,24.71
2022-08-31T07:26:46.896Z,24.73
2022-08-31T07:27:50.515Z,24.67
2022-08-31T07:28:54.322Z,24.75
2022-08-31T07:29:55.982Z,24.74
2022-08-31T07:30:57.599Z,24.71
2022-08-31T07:31:59.852Z,24.58
2022-08-31T07:33:06.787Z,24.50
2022-08-31T07:34:10.665Z,24.52
2022-08-31T07:35:12.247Z,24.60
2022-08-31T07:36:15.882Z,24.78
2022-08-31T07:37:36.108Z,24.89
2022-08-31T07:38:57.088Z,25.19
2022-08-31T07:40:17.533Z,25.31
2022-08-31T07:41:37.741Z,25.34
2022-08-31T07:42:44.528Z,25.39
2022-08-31T07:43:46.120Z,25.48
2022-08-31T07:44:53.594Z,25.65
2022-08-31T07:45:55.550Z,25.72
2022-08-31T07:46:57.578Z,25.73
2022-08-31T07:48:00.421Z,25.81
2022-08-31T07:49:03.026Z,25.77
2022-08-31T07:50:04.911Z,25.86
2022-08-31T07:51:06.508Z,25.99
2022-08-31T07:52:08.855Z,26.04
2022-08-31T07:53:11.545Z,26.10
2022-08-31T07:54:14.411Z,26.20
2022-08-31T07:55:18.047Z,26.21
2022-08-31T07:56:21.804Z,26.16
2022-08-31T07:57:30.160Z,25.94
2022-08-31T07:58:31.794Z,25.82
2022-08-31T07:59:34.432Z,25.93
2022-08-31T08:00:43.314Z,25.92
2022-08-31T08:01:45.770Z,25.72
2022-08-31T08:02:52.735Z,25.79
2022-08-31T08:03:54.682Z,25.90
2022-08-31T08:04:56.351Z,26.09
2022-08-31T08:05:58.248Z,26.25
2022-08-31T08:07:05.970Z,26.37
2022-08-31T08:08:13.893Z,26.48
2022-08-31T08:09:24.473Z,26.56
2022-08-31T08:10:30.022Z,26.59
2022-08-31T08:11:32.354Z,26.61
2022-08-31T08:12:36.335Z,26.54
2022-08-31T08:13:38.978Z,26.61
2022-08-31T08:14:41.948Z,26.63
2022-08-31T08:15:43.547Z,26.67
2022-08-31T08:16:45.119Z,26.72
2022-08-31T08:17:46.688Z,26.70
2022-08-31T08:18:48.325Z,26.70
2022-08-31T08:19:49.948Z,26.69
2022-08-31T08:20:52.792Z,26.68
2022-08-31T08:21:55.597Z,26.67
2022-08-31T08:22:57.824Z,26.75
2022-08-31T08:24:00.042Z,26.87
2022-08-31T08:25:06.986Z,26.96
2022-08-31T08:26:21.220Z,27.12
2022-08-31T08:27:23.870Z,27.17
2022-08-31T08:28:45.964Z,27.27
2022-08-31T08:29:48.530Z,27.36
2022-08-31T08:30:54.438Z,27.47
2022-08-31T08:31:56.403Z,27.58
2022-08-31T08:33:03.906Z,27.58
2022-08-31T08:34:05.644Z,27.40
2022-08-31T08:35:08.471Z,27.43
2022-08-31T08:36:10.743Z,27.44
2022-08-31T08:37:13.481Z,27.35
2022-08-31T08:38:15.046Z,26.90
2022-08-31T08:39:18.308Z,26.88
2022-08-31T08:40:42.629Z,27.02
2022-08-31T08:41:47.184Z,27.11
2022-08-31T08:42:48.764Z,27.17
2022-08-31T08:43:53.261Z,27.25
2022-08-31T08:44:59.059Z,27.21
2022-08-31T08:46:15.221Z,27.12
2022-08-31T08:47:37.582Z,27.09
2022-08-31T08:48:43.726Z,26.99
2022-08-31T08:49:53.970Z,26.97
2022-08-31T08:50:56.702Z,27.09
2022-08-31T08:52:11.891Z,27.29
2022-08-31T08:53:15.258Z,27.44
2022-08-31T08:54:26.286Z,27.52
2022-08-31T08:55:35.653Z,27.51
2022-08-31T08:56:42.096Z,27.36
2022-08-31T08:57:46.842Z,27.33
2022-08-31T08:58:48.544Z,27.46
2022-08-31T08:59:53.974Z,27.43
2022-08-31T09:00:57.287Z,27.46
2022-08-31T09:02:07.031Z,27.44
2022-08-31T09:03:30.883Z,27.31
2022-08-31T09:05:42.938Z,27.40
2022-08-31T09:06:59.533Z,27.50
2022-08-31T09:08:25.628Z,27.47
2022-08-31T09:10:08.350Z,27.49
2022-08-31T09:11:20.249Z,27.53
2022-08-31T09:12:42.906Z,27.54
2022-08-31T09:13:49.101Z,27.56
2022-08-31T09:15:08.051Z,27.56
2022-08-31T09:16:09.702Z,27.45
2022-08-31T09:17:42.513Z,27.36
2022-08-31T09:18:47.084Z,27.13
2022-08-31T09:20:05.681Z,27.10
2022-08-31T09:21:21.912Z,26.98
2022-08-31T09:22:23.500Z,26.93
2022-08-31T09:23:28.065Z,26.90
2022-08-31T09:24:32.708Z,26.91
2022-08-31T09:25:52.171Z,26.90
2022-08-31T09:27:05.085Z,26.95
2022-08-31T09:28:08.748Z,26.97
2022-08-31T09:29:20.857Z,26.99
2022-08-31T09:30:45.617Z,27.13
2022-08-31T09:31:47.571Z,27.17
2022-08-31T09:32:57.429Z,27.05
2022-08-31T09:33:59.046Z,27.00
2022-08-31T09:35:09.265Z,27.04
2022-08-31T09:36:15.372Z,27.04
2022-08-31T09:37:23.456Z,27.06
2022-08-31T09:38:28.102Z,26.98
2022-08-31T09:39:36.941Z,26.86
2022-08-31T09:40:47.891Z,26.80
2022-08-31T09:41:50.822Z,26.76
2022-08-31T09:43:08.445Z,26.88
2022-08-31T09:44:29.465Z,26.94
2022-08-31T09:45:37.782Z,26.88
2022-08-31T09:46:56.667Z,26.80
2022-08-31T09:48:01.280Z,26.53
2022-08-31T09:49:03.237Z,26.33
2022-08-31T09:50:09.396Z,26.24
2022-08-31T09:51:21.616Z,26.26
2022-08-31T09:52:54.167Z,26.08
2022-08-31T09:54:23.125Z,25.96
2022-08-31T09:55:28.076Z,25.81
2022-08-31T09:56:29.828Z,25.67
2022-08-31T09:57:43.442Z,25.58
2022-08-31T09:58:52.599Z,25.70
2022-08-31T09:59:55.947Z,25.76
2022-08-31T10:00:58.078Z,25.82
2022-08-31T10:02:01.193Z,25.76
2022-08-31T10:03:22.555Z,25.75
2022-08-31T10:04:27.744Z,25.73
2022-08-31T10:05:44.548Z,25.75
2022-08-31T10:07:28.781Z,25.77
2022-08-31T10:08:53.616Z,25.72
2022-08-31T10:10:03.580Z,25.74
2022-08-31T10:11:11.527Z,25.79
2022-08-31T10:12:21.426Z,25.75
2022-08-31T10:13:34.599Z,25.87
2022-08-31T10:14:41.828Z,25.95
2022-08-31T10:16:08.329Z,26.06
2022-08-31T10:17:19.113Z,26.16
2022-08-31T10:18:30.527Z,26.21
2022-08-31T10:19:44.853Z,26.12
2022-08-31T10:20:56.008Z,26.17
2022-08-31T10:22:03.511Z,26.37
2022-08-31T10:23:14.539Z,26.47
2022-08-31T10:24:48.424Z,26.56
2022-08-31T10:26:04.563Z,26.70
2022-08-31T10:27:23.793Z,26.86
2022-08-31T10:28:32.120Z,26.90
2022-08-31T10:29:46.098Z,26.92
2022-08-31T10:30:59.690Z,27.06
2022-08-31T10:32:09.208Z,26.96
2022-08-31T10:33:16.317Z,27.05
2022-08-31T10:34:41.381Z,27.04
2022-08-31T10:36:00.665Z,27.03
2022-08-31T10:37:38.329Z,27.14
2022-08-31T10:38:47.583Z,27.35
2022-08-31T10:39:54.097Z,27.50
2022-08-31T10:41:16.831Z,27.66
2022-08-31T10:42:37.331Z,27.80
2022-08-31T10:44:17.806Z,27.60
2022-08-31T10:45:24.080Z,27.68
2022-08-31T10:46:26.080Z,27.79
2022-08-31T10:47:33.250Z,27.78
2022-08-31T10:48:37.280Z,27.80
2022-08-31T10:49:40.125Z,27.73
2022-08-31T10:50:49.040Z,27.86
2022-08-31T10:51:55.924Z,27.95
2022-08-31T10:53:03.365Z,27.92
2022-08-31T10:54:24.774Z,27.89
2022-08-31T10:55:29.232Z,27.87
2022-08-31T10:57:05.890Z,27.83
2022-08-31T10:58:07.437Z,27.57
2022-08-31T10:59:19.922Z,27.48
2022-08-31T11:00:45.792Z,27.47
2022-08-31T11:02:13.331Z,27.63
2022-08-31T11:03:36.627Z,27.79
2022-08-31T11:04:58.333Z,27.79
2022-08-31T11:06:30.062Z,27.98
2022-08-31T11:07:43.919Z,28.09
2022-08-31T11:09:02.489Z,28.07
2022-08-31T11:10:22.237Z,28.06
2022-08-31T11:11:26.817Z,28.02
2022-08-31T11:12:40.953Z,28.09
2022-08-31T11:14:00.263Z,28.20
2022-08-31T11:15:39.326Z,28.35
2022-08-31T11:16:50.168Z,28.42
2022-08-31T11:18:14.810Z,28.47
2022-08-31T11:19:31.300Z,28.33
2022-08-31T11:21:12.678Z,28.36
2022-08-31T11:22:30.938Z,28.28
2022-08-31T11:23:58.957Z,28.35
2022-08-31T11:25:04.021Z,28.47
2022-08-31T11:26:08.314Z,28.47
2022-08-31T11:27:33.586Z,28.57
2022-08-31T11:28:48.291Z,28.69
2022-08-31T11:29:56.756Z,28.79
2022-08-31T11:31:01.659Z,28.85
2022-08-31T11:32:26.103Z,28.81
2022-08-31T11:33:31.242Z,28.54
2022-08-31T11:34:47.000Z,28.58
2022-08-31T11:35:49.413Z,28.68
2022-08-31T11:36:57.669Z,28.83
2022-08-31T11:38:00.646Z,28.83
2022-08-31T11:39:03.171Z,28.97
2022-08-31T11:40:11.037Z,28.98
2022-08-31T11:41:31.810Z,28.83
2022-08-31T11:42:38.029Z,28.89
2022-08-31T11:43:44.682Z,29.04
2022-08-31T11:45:06.835Z,29.11
2022-08-31T11:46:27.246Z,29.13
2022-08-31T11:47:28.962Z,29.10
2022-08-31T11:48:53.563Z,28.94
2022-08-31T11:50:05.437Z,28.92
2022-08-31T11:51:07.578Z,28.98
2022-08-31T11:52:43.247Z,29.06
2022-08-31T11:53:49.391Z,29.14
2022-08-31T11:54:50.926Z,29.17
2022-08-31T11:56:00.499Z,29.25
2022-08-31T11:57:03.339Z,29.41
2022-08-31T11:58:20.791Z,29.58
2022-08-31T11:59:35.265Z,29.76
2022-08-31T12:01:11.637Z,29.82
2022-08-31T12:02:19.348Z,29.75
2022-08-31T12:03:45.734Z,29.73
2022-08-31T12:05:00.405Z,29.80
2022-08-31T12:06:02.361Z,29.88
2022-08-31T12:07:04.644Z,29.95
2022-08-31T12:08:11.657Z,29.97
2022-08-31T12:09:44.260Z,29.99
2022-08-31T12:11:13.822Z,30.17
2022-08-31T12:12:42.383Z,30.28
2022-08-31T12:14:02.353Z,30.23
2022-08-31T12:15:28.665Z,30.15
2022-08-31T12:16:57.835Z,30.14
2022-08-31T12:18:38.425Z,30.23
2022-08-31T12:20:02.255Z,30.25
2022-08-31T12:21:36.096Z,30.31
2022-08-31T12:23:30.282Z,30.31
2022-08-31T12:25:15.208Z,30.18
2022-08-31T12:26:43.028Z,29.87
2022-08-31T12:28:03.902Z,29.78
2022-08-31T12:29:20.115Z,29.82
2022-08-31T12:30:24.548Z,29.90
2022-08-31T12:31:26.678Z,30.00
2022-08-31T12:32:40.440Z,30.08
2022-08-31T12:34:00.683Z,30.18
2022-08-31T12:35:18.499Z,30.31
2022-08-31T12:36:28.236Z,30.32
2022-08-31T12:37:37.902Z,30.35
2022-08-31T12:38:39.558Z,30.48
2022-08-31T12:39:41.118Z,30.50
2022-08-31T12:40:51.171Z,30.48
2022-08-31T12:42:00.296Z,30.56
2022-08-31T12:43:15.479Z,30.67
2022-08-31T12:44:22.379Z,30.71
2022-08-31T12:45:57.314Z,30.79
2022-08-31T12:47:03.447Z,30.86
2022-08-31T12:48:17.312Z,30.87
2022-08-31T12:49:56.433Z,30.85
2022-08-31T12:51:23.457Z,30.79
2022-08-31T12:52:34.150Z,30.87
2022-08-31T12:53:50.615Z,30.86
2022-08-31T12:55:33.332Z,30.79
2022-08-31T12:56:46.775Z,30.69
2022-08-31T12:57:57.139Z,30.70
2022-08-31T12:59:07.486Z,30.66
2022-08-31T13:00:15.746Z,30.64
2022-08-31T13:01:25.897Z,30.61
2022-08-31T13:02:29.868Z,30.55
2022-08-31T13:03:32.630Z,30.54
2022-08-31T13:04:34.306Z,30.55
2022-08-31T13:05:38.388Z,30.52
2022-08-31T13:06:42.021Z,30.61
2022-08-31T13:07:44.737Z,30.64
2022-08-31T13:08:49.987Z,30.70
2022-08-31T13:10:16.528Z,30.77
2022-08-31T13:11:34.908Z,30.92
2022-08-31T13:12:54.079Z,31.01
2022-08-31T13:14:13.803Z,30.95
2022-08-31T13:15:43.889Z,30.89
2022-08-31T13:17:07.606Z,30.84
2022-08-31T13:18:16.369Z,30.91
2022-08-31T13:19:25.720Z,31.09
2022-08-31T13:20:35.525Z,31.17
2022-08-31T13:21:37.228Z,31.17
2022-08-31T13:22:41.770Z,31.20
2022-08-31T13:23:44.898Z,31.10
2022-08-31T13:24:53.841Z,31.12
2022-08-31T13:26:22.910Z,31.09
2022-08-31T13:27:27.638Z,31.15
2022-08-31T13:28:30.533Z,31.17
2022-08-31T13:29:41.108Z,31.22
2022-08-31T13:30:55.398Z,31.32
2022-08-31T13:31:59.862Z,31.35
2022-08-31T13:33:11.783Z,31.43
2022-08-31T13:34:19.193Z,31.46
2022-08-31T13:35:25.715Z,31.50
2022-08-31T13:36:37.078Z,31.54
2022-08-31T13:38:06.022Z,31.58
2022-08-31T13:39:24.406Z,31.62
2022-08-31T13:40:27.925Z,31.56
2022-08-31T13:41:40.680Z,31.50
2022-08-31T13:42:45.719Z,31.46
2022-08-31T13:43:53.898Z,31.40
2022-08-31T13:45:00.112Z,31.34
2022-08-31T13:46:02.465Z,31.21
2022-08-31T13:47:12.106Z,31.20
2022-08-31T13:48:20.448Z,31.17
2022-08-31T13:49:35.961Z,31.16
2022-08-31T13:50:52.505Z,31.13
2022-08-31T13:51:54.764Z,31.06
2022-08-31T13:53:26.344Z,31.00
2022-08-31T13:54:29.256Z,30.95
2022-08-31T13:55:37.987Z,30.91
2022-08-31T13:56:54.878Z,30.95
2022-08-31T13:57:59.753Z,30.99
2022-08-31T13:59:25.171Z,30.81
2022-08-31T14:00:58.160Z,30.14
2022-08-31T14:02:30.961Z,29.67
2022-08-31T14:03:53.628Z,28.95
2022-08-31T14:05:01.617Z,28.66
2022-08-31T14:06:24.082Z,28.29
2022-08-31T14:07:43.941Z,27.84
2022-08-31T14:08:50.110Z,27.43
2022-08-31T14:09:57.054Z,27.21
2022-08-31T14:10:58.698Z,27.00
2022-08-31T14:12:04.453Z,26.89
2022-08-31T14:13:15.040Z,26.60
2022-08-31T14:14:16.659Z,26.42
2022-08-31T14:15:50.400Z,26.32
2022-08-31T14:16:57.572Z,26.05
2022-08-31T14:19:33.648Z,25.84
2022-08-31T14:20:36.941Z,25.74
2022-08-31T14:21:42.132Z,25.67
2022-08-31T14:22:45.570Z,25.58
2022-08-31T14:24:01.391Z,25.60
2022-08-31T14:25:03.644Z,25.55
2022-08-31T14:26:18.170Z,25.51
2022-08-31T14:27:19.749Z,25.42
2022-08-31T14:28:33.765Z,25.31
2022-08-31T14:29:40.445Z,25.21